createdAt,value
2022-08-06T00:02:25.847Z,7.15
2022-08-06T00:05:01.343Z,7.38
2022-08-06T00:07:44.824Z,7.30
2022-08-06T00:10:29.232Z,7.20
2022-08-06T00:13:00.322Z,7.65
2022-08-06T00:16:10.080Z,7.30
2022-08-06T00:18:18.299Z,7.18
2022-08-06T00:20:46.479Z,6.88
2022-08-06T00:23:18.032Z,7.47
2022-08-06T00:25:52.155Z,7.28
2022-08-06T00:28:31.500Z,6.95
2022-08-06T00:31:06.170Z,7.38
2022-08-06T00:33:43.910Z,6.93
2022-08-06T00:36:28.371Z,7.20
2022-08-06T00:39:00.166Z,7.03
2022-08-06T00:41:41.505Z,6.85
2022-08-06T00:44:12.330Z,7.50
2022-08-06T00:46:42.746Z,7.28
2022-08-06T00:49:12.080Z,7.40
2022-08-06T00:51:50.253Z,7.72
2022-08-06T00:54:28.481Z,7.25
2022-08-06T00:59:39.547Z,6.95
2022-08-06T01:02:09.947Z,7.40
2022-08-06T01:04:38.447Z,7.75
2022-08-06T01:07:09.138Z,7.30
2022-08-06T01:09:45.943Z,7.82
2022-08-06T01:12:33.292Z,7.38
2022-08-06T01:15:05.174Z,10.70
2022-08-06T01:18:06.030Z,11.30
2022-08-06T01:21:57.682Z,10.60
2022-08-06T01:23:53.857Z,10.57
2022-08-06T01:26:45.163Z,10.70
2022-08-06T01:29:37.944Z,10.43
2022-08-06T01:32:19.208Z,11.13
2022-08-06T01:34:56.576Z,10.73
2022-08-06T01:37:38.411Z,10.27
2022-08-06T01:40:17.392Z,10.18
2022-08-06T01:42:54.218Z,10.93
2022-08-06T01:45:42.348Z,10.52
2022-08-06T01:48:28.657Z,10.45
2022-08-06T01:51:03.987Z,10.18
2022-08-06T01:54:06.097Z,10.25
2022-08-06T01:56:31.036Z,10.13
2022-08-06T01:59:16.541Z,10.13
2022-08-06T02:01:53.695Z,10.18
2022-08-06T02:04:27.822Z,9.82
2022-08-06T02:06:58.042Z,10.45
2022-08-06T02:09:33.621Z,10.05
2022-08-06T02:12:17.625Z,10.18
2022-08-06T02:15:00.470Z,10.20
2022-08-06T02:18:04.002Z,9.67
2022-08-06T02:20:35.964Z,9.48
2022-08-06T02:23:09.289Z,10.25
2022-08-06T02:25:41.919Z,9.88
2022-08-06T02:28:25.173Z,9.95
2022-08-06T02:30:55.563Z,9.90
2022-08-06T02:33:31.981Z,10.15
2022-08-06T02:36:27.139Z,9.38
2022-08-06T02:41:53.607Z,9.93
2022-08-06T02:44:45.947Z,9.98
2022-08-06T02:48:02.074Z,10.02
2022-08-06T02:50:38.731Z,9.90
2022-08-06T02:53:24.775Z,10.48
2022-08-06T02:55:59.006Z,10.82
2022-08-06T02:58:57.960Z,10.48
2022-08-06T03:01:43.026Z,10.63
2022-08-06T03:04:12.362Z,10.93
2022-08-06T03:06:45.202Z,10.82
2022-08-06T03:09:16.334Z,10.52
2022-08-06T03:11:47.535Z,9.45
2022-08-06T03:15:04.148Z,11.20
2022-08-06T03:17:07.543Z,10.05
2022-08-06T03:19:56.455Z,9.85
2022-08-06T03:22:35.944Z,9.82
2022-08-06T03:25:15.027Z,9.40
2022-08-06T03:27:44.970Z,9.48
2022-08-06T03:30:31.346Z,9.73
2022-08-06T03:33:41.870Z,9.80
2022-08-06T03:36:03.925Z,10.07
2022-08-06T03:38:39.892Z,10.57
2022-08-06T03:41:18.122Z,10.35
2022-08-06T03:43:55.826Z,9.85
2022-08-06T03:47:18.990Z,10.38
2022-08-06T03:50:13.562Z,10.32
2022-08-06T03:52:52.814Z,10.23
2022-08-06T03:55:25.703Z,10.60
2022-08-06T03:58:03.135Z,10.45
2022-08-06T04:00:38.348Z,10.52
2022-08-06T04:03:09.573Z,10.50
2022-08-06T04:05:47.985Z,10.43
2022-08-06T04:08:17.028Z,11.15
2022-08-06T04:10:52.968Z,10.85
2022-08-06T04:13:40.519Z,10.13
2022-08-06T04:16:29.994Z,10.90
2022-08-06T04:19:04.007Z,10.60
2022-08-06T04:23:08.562Z,11.00
2022-08-06T04:24:18.894Z,10.82
2022-08-06T04:26:51.956Z,10.55
2022-08-06T04:29:22.083Z,10.50
2022-08-06T04:32:13.078Z,10.85
2022-08-06T04:36:02.709Z,10.18
2022-08-06T04:37:40.408Z,10.30
2022-08-06T04:40:15.379Z,9.90
2022-08-06T04:42:55.835Z,10.13
2022-08-06T04:46:17.148Z,9.05
2022-08-06T04:48:21.507Z,9.85
2022-08-06T04:50:49.312Z,8.00
2022-08-06T04:53:42.695Z,8.82
2022-08-06T04:56:15.148Z,8.88
2022-08-06T04:58:54.363Z,9.25
2022-08-06T05:01:21.832Z,9.02
2022-08-06T05:04:13.286Z,8.50
2022-08-06T05:07:02.507Z,8.07
2022-08-06T05:09:42.506Z,7.93
2022-08-06T05:12:39.682Z,7.88
2022-08-06T05:15:41.794Z,7.25
2022-08-06T05:19:20.604Z,7.45
2022-08-06T05:21:21.925Z,7.35
2022-08-06T05:23:53.393Z,7.30
2022-08-06T05:26:25.109Z,6.72
2022-08-06T05:28:54.357Z,6.33
2022-08-06T05:31:46.205Z,6.93
2022-08-06T05:34:15.054Z,6.72
2022-08-06T05:36:43.932Z,7.15
2022-08-06T05:39:57.053Z,7.25
2022-08-06T05:41:59.874Z,7.10
2022-08-06T05:44:29.574Z,6.70
2022-08-06T05:47:08.423Z,6.65
2022-08-06T05:49:55.684Z,6.82
2022-08-06T05:52:52.122Z,6.70
2022-08-06T05:55:51.843Z,6.30
2022-08-06T05:58:54.743Z,5.32
2022-08-06T06:01:24.195Z,5.13
2022-08-06T06:03:57.072Z,6.47
2022-08-06T06:06:27.771Z,6.40
2022-08-06T06:08:59.223Z,6.72
2022-08-06T06:11:55.192Z,6.47
2022-08-06T06:14:38.379Z,6.55
2022-08-06T06:17:49.075Z,6.30
2022-08-06T06:21:03.379Z,6.55
2022-08-06T06:23:33.820Z,6.70
2022-08-06T06:26:32.463Z,6.65
2022-08-06T06:29:55.521Z,5.90
2022-08-06T06:32:42.607Z,5.25
2022-08-06T06:35:22.523Z,5.65
2022-08-06T06:38:14.247Z,5.78
2022-08-06T06:41:20.583Z,5.78
2022-08-06T06:44:17.801Z,5.18
2022-08-06T06:47:02.679Z,5.40
2022-08-06T06:49:59.981Z,5.75
2022-08-06T06:52:32.713Z,5.68
2022-08-06T06:55:17.097Z,5.60
2022-08-06T06:57:59.276Z,5.53
2022-08-06T07:00:44.418Z,5.30
2022-08-06T07:03:17.031Z,5.50
2022-08-06T07:06:05.410Z,5.88
2022-08-06T07:08:45.922Z,5.82
2022-08-06T07:11:23.537Z,5.22
2022-08-06T07:13:59.065Z,5.55
2022-08-06T07:16:35.791Z,5.90
2022-08-06T07:19:10.269Z,5.68
2022-08-06T07:21:42.443Z,5.45
2022-08-06T07:24:38.193Z,5.82
2022-08-06T07:27:14.742Z,5.57
2022-08-06T07:29:49.213Z,5.97
2022-08-06T07:32:33.095Z,5.53
2022-08-06T07:35:12.836Z,5.38
2022-08-06T07:38:07.639Z,5.20
2022-08-06T07:41:09.300Z,5.25
2022-08-06T07:43:53.707Z,5.57
2022-08-06T07:46:35.168Z,5.20
2022-08-06T07:49:08.495Z,5.18
2022-08-06T07:51:44.233Z,5.68
2022-08-06T07:54:12.999Z,5.30
2022-08-06T07:56:59.802Z,5.78
2022-08-06T07:59:30.606Z,6.60
2022-08-06T08:02:02.682Z,7.25
2022-08-06T08:04:52.382Z,7.82
2022-08-06T08:07:37.163Z,8.63
2022-08-06T08:10:07.022Z,9.52
2022-08-06T08:12:38.452Z,8.98
2022-08-06T08:15:17.644Z,9.25
2022-08-06T08:17:46.897Z,9.07
2022-08-06T08:20:32.693Z,9.52
2022-08-06T08:23:05.800Z,9.30
2022-08-06T08:25:40.536Z,9.38
2022-08-06T08:28:15.213Z,9.50
2022-08-06T08:30:47.988Z,8.20
2022-08-06T08:33:19.679Z,8.07
2022-08-06T08:36:00.902Z,6.53
2022-08-06T08:38:31.771Z,6.30
2022-08-06T08:41:21.937Z,6.20
2022-08-06T08:44:04.547Z,6.10
2022-08-06T08:46:42.202Z,5.85
2022-08-06T08:49:37.406Z,5.40
2022-08-06T08:52:11.328Z,5.00
2022-08-06T08:54:47.785Z,4.95
2022-08-06T08:58:38.682Z,4.88
2022-08-06T09:00:10.930Z,4.88
2022-08-06T09:02:49.989Z,4.30
2022-08-06T09:05:19.410Z,4.00
2022-08-06T09:08:01.128Z,3.78
2022-08-06T09:10:32.600Z,3.22
2022-08-06T09:13:22.229Z,3.10
2022-08-06T09:18:27.128Z,2.92
2022-08-06T09:20:58.048Z,2.00
2022-08-06T09:23:29.340Z,1.95
2022-08-06T09:26:06.821Z,1.88
2022-08-06T09:28:45.260Z,1.70
2022-08-06T09:31:21.961Z,1.25
2022-08-06T09:34:28.700Z,1.40
2022-08-06T09:36:57.456Z,1.30
2022-08-06T09:39:46.433Z,1.23
2022-08-06T09:42:18.442Z,1.10
2022-08-06T09:45:15.180Z,1.10
2022-08-06T09:47:58.805Z,1.02
2022-08-06T09:50:39.816Z,1.00
2022-08-06T09:53:14.379Z,1.30
2022-08-06T09:55:43.459Z,1.02
2022-08-06T09:58:12.585Z,1.02
2022-08-06T10:00:41.067Z,1.30
2022-08-06T10:04:02.164Z,0.90
2022-08-06T10:06:21.913Z,1.10
2022-08-06T10:09:21.066Z,1.00
2022-08-06T10:11:57.050Z,0.93
2022-08-06T10:14:34.935Z,0.88
2022-08-06T10:17:19.423Z,1.00
2022-08-06T10:20:04.831Z,0.80
2022-08-06T10:22:38.354Z,1.02
2022-08-06T10:25:12.810Z,1.30
2022-08-06T10:27:42.091Z,1.38
2022-08-06T10:32:59.476Z,1.40
2022-08-06T10:35:29.730Z,1.42
2022-08-06T10:38:14.472Z,1.48
2022-08-06T10:40:58.862Z,1.90
2022-08-06T10:43:34.737Z,1.30
2022-08-06T10:46:07.102Z,1.50
2022-08-06T10:50:23.309Z,1.13
2022-08-06T10:51:55.953Z,1.38
2022-08-06T10:54:19.680Z,1.10
2022-08-06T10:56:48.239Z,1.33
2022-08-06T11:02:33.360Z,1.50
2022-08-06T11:05:17.932Z,1.52
2022-08-06T11:08:40.443Z,1.70
2022-08-06T11:11:25.236Z,1.70
2022-08-06T11:14:02.943Z,1.63
2022-08-06T11:16:34.310Z,1.60
2022-08-06T11:19:13.377Z,1.60
2022-08-06T11:21:58.643Z,1.90
2022-08-06T11:24:32.239Z,1.90
2022-08-06T11:27:11.042Z,2.10
2022-08-06T11:30:13.490Z,1.75
2022-08-06T11:32:47.474Z,2.20
2022-08-06T11:35:51.323Z,2.08
2022-08-06T11:38:50.404Z,2.40
2022-08-06T11:41:51.427Z,3.05
2022-08-06T11:44:25.021Z,2.47
2022-08-06T11:47:31.156Z,2.35
2022-08-06T11:50:27.483Z,2.40
2022-08-06T11:52:56.112Z,2.83
2022-08-06T11:55:25.047Z,2.60
2022-08-06T11:58:33.221Z,2.53
2022-08-06T12:01:34.794Z,2.70
2022-08-06T12:03:52.260Z,2.70
2022-08-06T12:06:29.900Z,2.75
2022-08-06T12:09:23.928Z,2.60
2022-08-06T12:12:28.450Z,2.80
2022-08-06T12:15:58.968Z,2.28
2022-08-06T12:18:20.983Z,2.20
2022-08-06T12:20:56.169Z,2.03
2022-08-06T12:23:54.497Z,2.50
2022-08-06T12:26:13.577Z,2.60
2022-08-06T12:28:44.076Z,2.47
2022-08-06T12:31:35.806Z,2.45
2022-08-06T12:34:00.023Z,2.40
2022-08-06T12:36:40.799Z,2.50
2022-08-06T12:39:19.913Z,2.70
2022-08-06T12:41:54.441Z,2.58
2022-08-06T12:44:56.258Z,2.50
2022-08-06T12:48:02.594Z,2.55
2022-08-06T12:50:28.762Z,2.50
2022-08-06T12:53:06.463Z,2.70
2022-08-06T12:55:55.818Z,2.40
2022-08-06T12:58:42.716Z,2.60
2022-08-06T13:02:07.318Z,2.50
2022-08-06T13:04:10.498Z,2.50
2022-08-06T13:06:44.028Z,2.25
2022-08-06T13:09:15.154Z,2.30
2022-08-06T13:11:42.715Z,2.42
2022-08-06T13:14:18.854Z,2.40
2022-08-06T13:16:57.602Z,2.40
2022-08-06T13:19:28.164Z,2.40
2022-08-06T13:22:05.788Z,2.08
2022-08-06T13:24:35.183Z,2.20
2022-08-06T13:27:06.125Z,2.20
2022-08-06T13:30:34.278Z,2.10
2022-08-06T13:32:33.902Z,2.70
2022-08-06T13:35:17.281Z,1.90
2022-08-06T13:37:57.329Z,2.30
2022-08-06T13:40:51.488Z,2.10
2022-08-06T13:43:55.348Z,1.90
2022-08-06T13:46:29.639Z,1.83
2022-08-06T13:49:12.220Z,1.70
2022-08-06T13:51:48.376Z,1.90
2022-08-06T13:54:20.953Z,1.80
2022-08-06T13:56:52.039Z,1.70
2022-08-06T13:59:24.421Z,1.80
2022-08-06T14:02:09.095Z,1.73
2022-08-06T14:04:36.685Z,1.90
2022-08-06T14:07:05.378Z,1.70
2022-08-06T14:09:41.115Z,1.60
2022-08-06T14:12:20.487Z,1.63
2022-08-06T14:14:50.409Z,1.80
2022-08-06T14:17:19.518Z,1.80
2022-08-06T14:20:16.192Z,1.90
2022-08-06T14:22:37.106Z,1.73
2022-08-06T14:25:08.402Z,1.90
2022-08-06T14:27:43.528Z,1.80
2022-08-06T14:30:27.800Z,2.10
2022-08-06T14:33:26.771Z,2.03
2022-08-06T14:36:07.854Z,2.20
2022-08-06T14:38:35.532Z,2.10
2022-08-06T14:41:50.356Z,2.10
2022-08-06T14:44:31.252Z,1.90
2022-08-06T14:46:59.899Z,2.08
2022-08-06T14:49:33.096Z,1.90
2022-08-06T14:52:19.922Z,2.10
2022-08-06T14:54:56.222Z,2.15
2022-08-06T15:00:34.759Z,2.00
2022-08-06T15:03:07.878Z,2.15
2022-08-06T15:06:00.528Z,1.98
2022-08-06T15:08:28.659Z,2.15
2022-08-06T15:10:59.847Z,1.90
2022-08-06T15:13:36.488Z,1.90
2022-08-06T15:16:10.913Z,1.90
2022-08-06T15:19:20.917Z,2.10
2022-08-06T15:21:54.878Z,2.05
2022-08-06T15:24:38.638Z,2.00
2022-08-06T15:27:09.607Z,1.80
2022-08-06T15:29:47.732Z,1.98
2022-08-06T15:32:17.575Z,2.15
2022-08-06T15:34:48.829Z,2.08
2022-08-06T15:37:53.023Z,2.00
2022-08-06T15:40:14.219Z,2.08
2022-08-06T15:42:43.270Z,2.08
2022-08-06T15:45:50.659Z,2.10
2022-08-06T15:48:12.924Z,2.00
2022-08-06T15:51:30.424Z,1.80
2022-08-06T15:53:40.187Z,1.98
2022-08-06T15:56:10.913Z,2.25
2022-08-06T15:58:38.316Z,1.90
2022-08-06T16:01:08.575Z,1.90
2022-08-06T16:03:37.829Z,1.70
2022-08-06T16:06:25.985Z,2.10
2022-08-06T16:09:00.054Z,2.00
2022-08-06T16:11:28.654Z,1.98
2022-08-06T16:14:19.838Z,2.20
2022-08-06T16:19:27.507Z,2.20
2022-08-06T16:21:55.273Z,2.40
2022-08-06T16:24:24.371Z,2.42
2022-08-06T16:26:57.445Z,2.10
2022-08-06T16:29:25.447Z,2.10
2022-08-06T16:31:54.987Z,1.85
2022-08-06T16:34:29.969Z,1.92
2022-08-06T16:37:00.743Z,1.70
2022-08-06T16:39:36.433Z,1.90
2022-08-06T16:42:10.331Z,1.90
2022-08-06T16:50:26.303Z,1.88
2022-08-06T16:54:12.857Z,2.10
2022-08-06T16:55:45.080Z,1.98
2022-08-06T16:58:16.620Z,1.95
2022-08-06T17:02:14.903Z,1.90
2022-08-06T17:06:42.133Z,1.90
2022-08-06T17:09:16.177Z,1.90
2022-08-06T17:11:57.946Z,2.00
2022-08-06T17:14:29.140Z,1.90
2022-08-06T17:16:58.906Z,1.70
2022-08-06T17:19:29.482Z,1.98
2022-08-06T17:22:04.647Z,1.92
2022-08-06T17:24:42.483Z,2.13
2022-08-06T17:27:16.051Z,2.00
2022-08-06T17:30:07.383Z,2.13
2022-08-06T17:32:46.078Z,2.10
2022-08-06T17:35:16.536Z,2.08
2022-08-06T17:37:50.161Z,2.20
2022-08-06T17:42:29.200Z,1.90
2022-08-06T17:43:23.133Z,2.05
2022-08-06T17:46:25.172Z,1.88
2022-08-06T17:48:50.956Z,1.80
2022-08-06T17:51:22.226Z,2.00
2022-08-06T17:53:52.079Z,2.00
2022-08-06T17:56:32.302Z,2.22
2022-08-06T17:59:18.892Z,2.08
2022-08-06T18:01:51.061Z,2.60
2022-08-06T18:04:32.997Z,2.30
2022-08-06T18:07:12.337Z,2.33
2022-08-06T18:10:08.693Z,2.42
2022-08-06T18:12:49.108Z,2.25
2022-08-06T18:15:47.125Z,2.15
2022-08-06T18:18:19.234Z,2.20
2022-08-06T18:20:48.659Z,2.42
2022-08-06T18:23:21.332Z,2.55
2022-08-06T18:26:02.308Z,2.40
2022-08-06T18:28:39.936Z,3.10
2022-08-06T18:31:20.037Z,2.60
2022-08-06T18:33:53.529Z,2.90
2022-08-06T18:39:13.389Z,2.80
2022-08-06T18:41:57.588Z,3.15
2022-08-06T18:44:28.174Z,3.00
2022-08-06T18:47:12.010Z,3.20
2022-08-06T18:49:57.880Z,3.55
2022-08-06T18:52:39.375Z,3.78
2022-08-06T18:55:17.616Z,3.72
2022-08-06T18:58:04.987Z,3.78
2022-08-06T19:00:34.842Z,4.03
2022-08-06T19:03:02.600Z,4.28
2022-08-06T19:05:40.379Z,4.20
2022-08-06T19:08:12.405Z,4.50
2022-08-06T19:10:45.226Z,4.30
2022-08-06T19:13:15.069Z,4.53
2022-08-06T19:15:51.255Z,4.75
2022-08-06T19:18:25.440Z,5.07
2022-08-06T19:20:53.476Z,5.50
2022-08-06T19:24:00.100Z,5.38
2022-08-06T19:26:12.279Z,6.15
2022-08-06T19:28:49.014Z,6.78
2022-08-06T19:31:23.773Z,6.82
2022-08-06T19:34:14.172Z,6.50
2022-08-06T19:36:43.271Z,6.70
2022-08-06T19:39:58.466Z,7.57
2022-08-06T19:42:01.142Z,7.30
2022-08-06T19:44:38.781Z,8.07
2022-08-06T19:47:21.735Z,7.55
2022-08-06T19:50:00.548Z,7.70
2022-08-06T19:52:30.539Z,8.52
2022-08-06T19:54:59.415Z,7.30
2022-08-06T19:57:46.759Z,8.60
2022-08-06T20:00:50.463Z,8.38
2022-08-06T20:03:02.608Z,8.35
2022-08-06T20:06:20.884Z,8.43
2022-08-06T20:08:33.626Z,7.53
2022-08-06T20:11:09.587Z,8.60
2022-08-06T20:13:53.037Z,7.00
2022-08-06T20:16:20.394Z,7.35
2022-08-06T20:18:49.272Z,6.93
2022-08-06T20:21:20.053Z,7.78
2022-08-06T20:24:04.572Z,7.40
2022-08-06T20:26:36.729Z,7.07
2022-08-06T20:29:21.807Z,7.10
2022-08-06T20:31:55.232Z,6.63
2022-08-06T20:34:29.079Z,7.13
2022-08-06T20:36:57.329Z,6.57
2022-08-06T20:39:29.700Z,5.93
2022-08-06T20:42:07.503Z,6.50
2022-08-06T20:44:39.299Z,6.47
2022-08-06T20:47:46.364Z,5.75
2022-08-06T20:50:12.144Z,6.20
2022-08-06T20:52:41.355Z,6.10
2022-08-06T20:55:13.819Z,6.10
2022-08-06T20:57:47.484Z,5.70
2022-08-06T21:00:28.082Z,5.90
2022-08-06T21:03:28.182Z,5.80
2022-08-06T21:05:51.161Z,5.50
2022-08-06T21:08:26.765Z,5.68
2022-08-06T21:10:57.818Z,5.30
2022-08-06T21:13:35.394Z,5.30
2022-08-06T21:16:29.058Z,5.05
2022-08-06T21:19:01.438Z,5.40
2022-08-06T21:21:31.755Z,5.10
2022-08-06T21:24:00.668Z,4.90
2022-08-06T21:26:29.622Z,4.72
2022-08-06T21:30:07.658Z,5.10
2022-08-06T21:31:49.476Z,4.93
2022-08-06T21:34:17.921Z,4.80
2022-08-06T21:36:47.711Z,4.90
2022-08-06T21:39:17.684Z,5.00
2022-08-06T21:41:59.215Z,5.10
2022-08-06T21:44:31.989Z,5.00
2022-08-06T21:47:01.014Z,5.13
2022-08-06T21:49:59.735Z,5.35
2022-08-06T21:52:28.010Z,5.38
2022-08-06T21:56:35.147Z,5.30
2022-08-06T21:58:02.634Z,5.15
2022-08-06T22:00:36.871Z,5.55
2022-08-06T22:04:34.635Z,5.93
2022-08-06T22:06:20.154Z,5.50
2022-08-06T22:08:53.009Z,5.20
2022-08-06T22:12:36.789Z,5.70
2022-08-06T22:14:16.517Z,5.82
2022-08-06T22:16:54.283Z,5.70
2022-08-06T22:19:33.235Z,5.78
2022-08-06T22:22:07.663Z,5.82
2022-08-06T22:24:37.124Z,6.15
2022-08-06T22:27:06.740Z,6.15
2022-08-06T22:29:59.159Z,6.50
2022-08-06T22:32:28.302Z,6.57
2022-08-06T22:34:58.555Z,6.68
2022-08-06T22:38:15.299Z,6.35
2022-08-06T22:40:13.514Z,6.50
2022-08-06T22:42:59.171Z,6.88
2022-08-06T22:46:00.261Z,7.35
2022-08-06T22:48:18.345Z,7.22
2022-08-06T22:50:56.665Z,6.50
2022-08-06T22:54:30.001Z,6.93
2022-08-06T22:56:12.586Z,6.70
2022-08-06T22:59:03.527Z,7.05
2022-08-06T23:02:06.690Z,6.90
2022-08-06T23:04:14.653Z,6.88
2022-08-06T23:06:43.985Z,6.78
2022-08-06T23:09:17.172Z,6.78
2022-08-06T23:11:58.939Z,6.60
2022-08-06T23:14:32.303Z,6.95
2022-08-06T23:17:02.604Z,6.35
2022-08-06T23:19:34.946Z,6.30
2022-08-06T23:22:06.648Z,6.97
2022-08-06T23:24:37.228Z,7.10
2022-08-06T23:27:16.180Z,6.85
2022-08-06T23:30:09.530Z,6.13
2022-08-06T23:32:35.890Z,6.15
2022-08-06T23:35:08.976Z,6.40
2022-08-06T23:38:26.797Z,6.53
2022-08-06T23:40:43.669Z,6.13
2022-08-06T23:43:17.304Z,6.32
2022-08-06T23:45:48.203Z,6.40
2022-08-06T23:48:16.854Z,6.30
2022-08-06T23:50:52.708Z,6.38
2022-08-06T23:54:07.431Z,6.38
2022-08-06T23:56:14.549Z,6.20
2022-08-06T23:58:49.178Z,6.63
